Aviation Digital Data Service (ADDS)

Output produced by TAFs form (0253 UTC 21 January 2018)
found at http://www.aviationweather.gov/adds/tafs/
 
KSSI 210153Z AUTO 00000KT 10SM CLR 10/00 A3030 RMK AO2 SLP260 T01000000 $
KSSI 202320Z 2100/2124 18004KT P6SM BKN150 OVC250 
     FM211600 10009KT P6SM FEW040 SCT100 SCT200